Terminal Aerodrome Forecast
Issued by NWS

Home | Current Version | Previous Version | Text Only | Print | Product List | Glossary On
Versions: 1 2 3 4 5 6 7 8 9 10 11 12 13
000
FTAK31 PAJN 232300
TAFAWG
TAF
PAWG 232338Z 2400/2424 VRB06KT P6SM VCSH FEW005 BKN035 OVC060
      TEMPO 2400/2404 31010KT 6SM -SHRA SCT005 BKN025 OVC040
     FM240400 VRB06KT P6SM -RA FEW005 BKN035 OVC060
      TEMPO 2404/2408 31010KT 6SM -RA BR SCT005 BKN025 OVC040
     FM240900 12008KT 6SM -RA BR SCT005 OVC025=

USA.gov is the U.S. government's official web portal to all federal, state and local government web resources and services.